Time;durP1;ratioP1;P1;durP2;ratioP2;P2;SDS_P1;SDS_P2;PMS_P1;PMS_P2;Temp;Humidity;BMP_temperature;BMP_pressure;BME280_temperature;BME280_humidity;BME280_pressure;Samples;Min_cycle;Max_cycle;Signal;HPM_P1;HPM_P2
2023/01/17 01:35:22;;;;;;;28.33;9.63;;;11.50;99.90;;;;;;4962050;28;20043;-91
2023/01/17 01:37:48;;;;;;;38.90;10.27;;;11.60;99.90;;;;;;4945362;28;20022;-93
2023/01/17 01:40:16;;;;;;;47.35;10.77;;;11.60;99.90;;;;;;4945693;28;20058;-93
2023/01/17 01:42:55;;;;;;;41.30;9.70;;;11.70;99.90;;;;;;4945338;28;20397;-92
2023/01/17 01:45:28;;;;;;;33.47;10.02;;;11.70;99.90;;;;;;4945177;28;20060;-92
2023/01/17 01:48:04;;;;;;;33.30;9.95;;;11.70;99.90;;;;;;4945103;28;20165;-92
2023/01/17 01:50:36;;;;;;;26.10;9.27;;;11.70;99.90;;;;;;4945228;28;20046;-92
2023/01/17 01:53:06;;;;;;;35.10;9.20;;;11.70;99.90;;;;;;4945120;28;20477;-92
2023/01/17 01:55:37;;;;;;;25.95;9.10;;;11.70;99.90;;;;;;4979086;28;20057;-92
2023/01/17 01:58:10;;;;;;;33.42;9.55;;;11.70;99.90;;;;;;4980476;28;20109;-91
2023/01/17 02:00:39;;;;;;;32.50;9.43;;;11.80;99.90;;;;;;4980307;28;20030;-93
2023/01/17 02:03:33;;;;;;;28.33;9.63;;;11.70;99.90;;;;;;4980384;28;20050;-94
2023/01/17 02:06:22;;;;;;;29.58;10.13;;;11.70;99.90;;;;;;4903136;29;20064;-94
2023/01/17 02:08:49;;;;;;;32.60;10.32;;;11.70;99.90;;;;;;4877782;29;20490;-93
2023/01/17 02:11:16;;;;;;;34.92;11.82;;;11.70;99.90;;;;;;4902947;29;20092;-95
2023/01/17 02:13:42;;;;;;;41.40;11.52;;;11.70;99.90;;;;;;4887440;29;20056;-91
2023/01/17 02:16:18;;;;;;;40.50;10.70;;;11.70;99.90;;;;;;4887405;29;20170;-93
2023/01/17 02:18:54;;;;;;;28.63;9.68;;;11.70;99.90;;;;;;4887446;29;20032;-93
2023/01/17 02:21:32;;;;;;;33.20;9.88;;;11.70;99.90;;;;;;4902751;29;20056;-92
2023/01/17 02:24:23;;;;;;;32.53;11.27;;;11.80;99.90;;;;;;4887589;29;20503;-93
2023/01/17 02:26:55;;;;;;;35.72;10.40;;;11.80;99.90;;;;;;4887266;29;20410;-91
2023/01/17 02:29:34;;;;;;;30.85;10.43;;;11.90;99.90;;;;;;4883763;29;20192;-92
2023/01/17 02:32:09;;;;;;;34.28;9.70;;;11.90;99.90;;;;;;4870609;29;20032;-94
2023/01/17 09:43:47;;;;;;;32.53;14.85;;;14.30;99.90;;;;;;4859981;29;20040;-92
2023/01/17 09:47:05;;;;;;;32.03;18.35;;;14.40;99.90;;;;;;4880422;29;20037;-93
2023/01/17 09:49:45;;;;;;;19.23;13.35;;;14.40;99.90;;;;;;4880923;29;20033;-92
2023/01/17 09:52:22;;;;;;;25.65;13.57;;;14.50;99.90;;;;;;4881505;29;20072;-92
2023/01/17 09:54:52;;;;;;;19.20;13.25;;;14.60;99.90;;;;;;4866225;29;20066;-93
2023/01/17 10:01:02;;;;;;;;;;;;;;;;;;;;;
2023/01/17 10:12:22;;;;;;;;;;;;;;;;;;;;;
2023/01/17 10:19:43;;;;;;;30.92;14.27;;;15.00;99.90;;;;;;4719034;30;20033;-93
2023/01/17 10:37:26;;;;;;;32.35;13.02;;;15.10;99.90;;;;;;4584911;31;20447;-92
2023/01/17 10:40:54;;;;;;;25.20;12.95;;;15.10;99.90;;;;;;4588359;31;20055;-93
2023/01/17 10:43:46;;;;;;;;;;;15.20;99.90;;;;;;4591024;31;20048;-94
2023/01/17 10:50:38;;;;;;;23.35;12.75;;;15.20;99.90;;;;;;4665168;30;20039;-93
2023/01/17 11:12:58;;;;;;;22.70;13.15;;;15.30;99.90;;;;;;4937231;29;20054;-92
2023/01/17 11:16:00;;;;;;;23.73;12.15;;;15.30;99.90;;;;;;4907253;29;20090;-92
2023/01/17 11:18:41;;;;;;;32.13;13.35;;;15.20;99.90;;;;;;4922678;29;20024;-92
2023/01/17 11:21:35;;;;;;;29.08;13.23;;;15.30;99.90;;;;;;4911188;29;20401;-93
2023/01/17 11:24:30;;;;;;;30.85;12.75;;;15.30;99.90;;;;;;4924081;29;20026;-91
2023/01/17 11:27:21;;;;;;;27.70;12.52;;;15.40;99.90;;;;;;4910050;29;20051;-93
2023/01/17 11:30:08;;;;;;;25.30;13.15;;;15.30;99.90;;;;;;4923705;29;20027;-93
2023/01/17 11:33:02;;;;;;;35.67;13.35;;;15.30;99.90;;;;;;4921893;29;20039;-93
2023/01/17 11:36:13;;;;;;;29.52;13.05;;;15.30;99.90;;;;;;4921071;29;20040;-94
2023/01/17 11:39:23;;;;;;;31.02;13.52;;;15.30;99.90;;;;;;4827770;29;20448;-92
2023/01/17 11:42:02;;;;;;;34.58;12.75;;;15.30;99.90;;;;;;4776512;29;20046;-92
2023/01/17 11:44:53;;;;;;;29.95;14.40;;;15.20;99.90;;;;;;4777110;29;20042;-92
2023/01/17 11:47:55;;;;;;;29.38;13.40;;;15.20;99.90;;;;;;4793018;29;20034;-93
2023/01/17 11:51:01;;;;;;;24.80;12.88;;;15.10;99.90;;;;;;4792890;29;20045;-92
2023/01/17 11:53:54;;;;;;;;;;;;;;;;;;;;;
2023/01/17 11:57:31;;;;;;;28.35;13.50;;;15.10;99.90;;;;;;4789720;29;20494;-94
2023/01/17 12:00:55;;;;;;;45.17;13.40;;;15.20;99.90;;;;;;4790777;29;20034;-93
2023/01/17 12:04:12;;;;;;;45.60;13.75;;;15.40;99.90;;;;;;4794507;29;20054;-93
2023/01/17 12:07:15;;;;;;;39.78;13.57;;;15.50;99.90;;;;;;4790652;29;20084;-93
2023/01/17 12:10:15;;;;;;;35.33;13.10;;;15.50;99.90;;;;;;4814563;29;20199;-94
2023/01/17 12:15:52;;;;;;;30.92;12.40;;;15.60;99.90;;;;;;4845205;29;20110;-94
2023/01/17 12:18:43;;;;;;;32.92;12.15;;;15.80;99.90;;;;;;4867443;29;20606;-94
2023/01/17 12:21:28;;;;;;;53.17;13.07;;;16.10;99.90;;;;;;4901627;29;20043;-92
2023/01/17 12:24:23;;;;;;;48.47;13.27;;;16.30;99.90;;;;;;4902186;29;20051;-93
2023/01/17 12:27:28;;;;;;;26.27;13.50;;;16.30;99.90;;;;;;4901470;29;20469;-94
2023/01/17 12:30:05;;;;;;;33.42;13.35;;;16.20;99.90;;;;;;4844886;29;20029;-93
2023/01/17 12:32:54;;;;;;;43.30;15.25;;;16.10;99.90;;;;;;4830136;29;20048;-92
2023/01/17 12:35:49;;;;;;;29.65;12.95;;;15.90;99.90;;;;;;4829672;29;20045;-91
2023/01/17 12:38:36;;;;;;;41.55;14.43;;;15.90;99.90;;;;;;4845049;29;20041;-93
2023/01/17 12:41:13;;;;;;;42.28;13.43;;;16.00;99.90;;;;;;4845092;29;20037;-93
2023/01/17 12:43:40;;;;;;;40.47;13.55;;;16.10;99.90;;;;;;4844965;29;20042;-92
2023/01/17 12:46:25;;;;;;;42.08;13.60;;;16.10;99.90;;;;;;4845217;29;20093;-93
2023/01/17 12:49:17;;;;;;;46.45;13.27;;;15.90;99.90;;;;;;4848769;29;20037;-93
2023/01/17 12:51:49;;;;;;;33.42;12.60;;;15.90;99.90;;;;;;4808651;29;20041;-94
2023/01/17 12:54:34;;;;;;;33.88;12.32;;;15.90;99.90;;;;;;4849160;29;20029;-91
2023/01/17 12:57:47;;;;;;;50.30;14.65;;;15.90;99.90;;;;;;4850844;29;20140;-92
2023/01/17 13:00:21;;;;;;;40.50;14.07;;;15.90;99.90;;;;;;4863338;29;20077;-94
2023/01/17 13:03:28;;;;;;;36.28;13.77;;;16.00;99.90;;;;;;4853145;29;20504;-92
2023/01/17 13:05:57;;;;;;;36.33;13.77;;;16.00;99.90;;;;;;4902393;29;20083;-92
2023/01/17 13:08:40;;;;;;;46.92;13.88;;;16.00;99.90;;;;;;4887221;29;20028;-92
2023/01/17 13:11:24;;;;;;;37.47;14.37;;;16.00;99.90;;;;;;4904950;29;20068;-93
2023/01/17 13:13:52;;;;;;;41.63;14.17;;;16.00;99.90;;;;;;4905728;29;20072;-93
2023/01/17 13:16:30;;;;;;;42.33;15.18;;;16.00;99.90;;;;;;4922737;29;20036;-92
2023/01/17 13:19:11;;;;;;;43.00;16.00;;;15.90;99.90;;;;;;4913267;29;20024;-92
2023/01/17 13:22:18;;;;;;;49.95;17.15;;;15.90;99.90;;;;;;4927473;29;20035;-93
2023/01/17 13:25:22;;;;;;;43.50;16.17;;;15.90;99.90;;;;;;4925109;29;20484;-93
2023/01/17 13:29:00;;;;;;;38.85;15.10;;;15.90;99.90;;;;;;4939851;29;20039;-93
2023/01/17 13:32:12;;;;;;;44.88;14.95;;;15.90;99.90;;;;;;4939889;29;20421;-94
2023/01/17 13:35:21;;;;;;;41.22;13.57;;;15.90;99.90;;;;;;4924306;29;20031;-94
2023/01/17 13:38:53;;;;;;;41.78;13.20;;;15.90;99.90;;;;;;4924808;29;20038;-93
2023/01/17 14:02:41;;;;;;;40.88;13.98;;;15.90;99.90;;;;;;5362682;23;20085;-91
2023/01/17 14:34:58;;;;;;;41.92;13.68;;;15.40;99.90;;;;;;4967061;28;20051;-92
2023/01/17 14:38:30;;;;;;;34.78;13.70;;;15.40;99.90;;;;;;4929926;29;20027;-93
2023/01/17 15:15:41;;;;;;;42.38;15.95;;;15.10;99.90;;;;;;4915875;29;20040;-93
2023/01/17 15:24:02;;;;;;;41.90;15.85;;;15.10;99.90;;;;;;4936486;29;20126;-93
2023/01/17 15:26:57;;;;;;;48.80;14.75;;;15.10;99.90;;;;;;4937350;29;20067;-94
2023/01/17 15:29:34;;;;;;;56.67;15.60;;;15.10;99.90;;;;;;4914785;29;20035;-94
2023/01/17 15:34:47;;;;;;;41.92;15.23;;;15.00;99.90;;;;;;5346892;23;20061;-93
2023/01/17 15:37:31;;;;;;;38.60;15.48;;;15.00;99.90;;;;;;4960139;28;20038;-94
2023/01/17 15:40:20;;;;;;;41.87;15.60;;;15.00;99.90;;;;;;4956557;28;20042;-93
2023/01/17 15:42:57;;;;;;;42.47;16.20;;;15.00;99.90;;;;;;4956009;29;20023;-93
2023/01/17 15:45:59;;;;;;;39.97;14.85;;;14.90;99.90;;;;;;4972052;28;20031;-91
2023/01/17 15:48:42;;;;;;;34.75;14.38;;;14.90;99.90;;;;;;4955784;28;20035;-92
2023/01/17 15:51:12;;;;;;;46.35;15.55;;;14.90;99.90;;;;;;4971838;28;20062;-91
2023/01/17 15:53:41;;;;;;;45.63;15.35;;;14.90;99.90;;;;;;4955858;29;20031;-92
2023/01/17 15:56:30;;;;;;;46.00;15.10;;;14.90;99.90;;;;;;4971896;28;20122;-93
2023/01/17 15:59:28;;;;;;;48.53;15.63;;;14.90;99.90;;;;;;4936939;29;20028;-94
2023/01/17 16:02:28;;;;;;;39.67;14.00;;;14.90;99.90;;;;;;4937503;29;20034;-93
2023/01/17 16:04:55;;;;;;;44.97;15.65;;;14.90;99.90;;;;;;4944657;29;20028;-91
2023/01/17 16:07:34;;;;;;;43.22;14.10;;;14.80;99.90;;;;;;4921042;29;20054;-91
2023/01/17 16:10:06;;;;;;;37.75;13.48;;;14.80;99.90;;;;;;4920414;29;20039;-93
2023/01/17 16:12:33;;;;;;;37.90;12.77;;;14.90;99.90;;;;;;4920478;29;20123;-93
2023/01/17 16:14:59;;;;;;;34.20;13.70;;;14.80;99.90;;;;;;4920440;29;20032;-91
2023/01/17 16:17:29;;;;;;;41.13;15.40;;;14.90;99.90;;;;;;4920641;29;20023;-94
2023/01/17 16:19:56;;;;;;;41.05;14.05;;;14.80;99.90;;;;;;4920510;29;20403;-92
2023/01/17 16:25:32;;;;;;;38.80;14.10;;;14.90;99.90;;;;;;5233545;23;20054;-93
2023/01/17 16:28:16;;;;;;;;;;;;;;;;;;;;;
2023/01/17 16:31:28;;;;;;;;;;;;;;;;;;;;;
2023/01/17 16:34:29;;;;;;;37.83;13.88;;;14.80;99.90;;;;;;5001558;23;20050;-90
2023/01/17 16:36:58;;;;;;;28.63;12.43;;;14.80;99.90;;;;;;4943005;28;20030;-92
2023/01/17 16:39:26;;;;;;;46.70;15.82;;;14.80;99.90;;;;;;4939876;29;20082;-92
2023/01/17 16:42:06;;;;;;;43.88;14.20;;;14.70;99.90;;;;;;4955363;29;20038;-93
2023/01/17 16:44:41;;;;;;;48.30;15.18;;;14.70;99.90;;;;;;4939525;29;20035;-91
2023/01/17 16:47:11;;;;;;;40.45;13.52;;;14.70;99.90;;;;;;4955059;29;20031;-92
2023/01/17 16:49:38;;;;;;;41.80;15.10;;;14.70;99.90;;;;;;4939083;29;20043;-95
2023/01/17 16:52:05;;;;;;;42.13;13.45;;;14.70;99.90;;;;;;4939197;29;20031;-92
2023/01/17 16:54:34;;;;;;;47.78;15.68;;;14.60;99.90;;;;;;4939528;29;20066;-93
2023/01/17 16:57:01;;;;;;;47.90;13.43;;;14.70;99.90;;;;;;4955322;29;20035;-95
2023/01/17 16:59:35;;;;;;;46.85;13.88;;;14.70;99.90;;;;;;4939617;29;20024;-92
2023/01/17 17:02:03;;;;;;;43.10;13.02;;;14.70;99.90;;;;;;4935735;29;20059;-91
2023/01/17 17:04:40;;;;;;;37.63;12.70;;;14.70;99.90;;;;;;4919776;29;20135;-92
2023/01/17 17:07:08;;;;;;;43.60;12.50;;;14.80;99.90;;;;;;4920218;29;20103;-93
2023/01/17 17:09:35;;;;;;;48.42;14.50;;;14.80;99.90;;;;;;4925859;29;20052;-92
2023/01/17 17:12:06;;;;;;;46.97;13.65;;;14.80;99.90;;;;;;4925534;29;20063;-92
2023/01/17 17:14:34;;;;;;;35.45;13.25;;;14.80;99.90;;;;;;4936150;29;20055;-94
2023/01/17 17:17:07;;;;;;;39.80;13.60;;;14.80;99.90;;;;;;4919573;29;20064;-92
2023/01/17 17:19:34;;;;;;;30.73;12.63;;;14.70;99.90;;;;;;4935408;29;20521;-94
2023/01/17 17:22:05;;;;;;;36.85;12.85;;;14.70;99.90;;;;;;4918925;29;20032;-92
2023/01/17 17:24:32;;;;;;;46.22;14.20;;;14.70;99.90;;;;;;4934930;29;20505;-93
2023/01/17 17:26:58;;;;;;;40.88;12.90;;;14.80;99.90;;;;;;4918852;29;20036;-90
2023/01/17 17:29:25;;;;;;;40.90;12.75;;;14.80;99.90;;;;;;4918826;29;20122;-94
2023/01/17 17:31:52;;;;;;;55.35;15.50;;;14.80;99.90;;;;;;4934646;29;20110;-92
2023/01/17 17:34:19;;;;;;;49.83;13.77;;;14.80;99.90;;;;;;4923054;29;20106;-94
2023/01/17 17:36:46;;;;;;;45.78;11.85;;;14.80;99.90;;;;;;4974325;28;20042;-91
2023/01/17 17:39:37;;;;;;;39.80;12.77;;;14.80;99.90;;;;;;4958564;28;20042;-93
2023/01/17 17:42:07;;;;;;;47.55;12.55;;;14.80;99.90;;;;;;4974403;28;20031;-94
2023/01/17 17:44:34;;;;;;;44.13;12.90;;;14.80;99.90;;;;;;4958517;29;20473;-94
2023/01/17 17:47:01;;;;;;;59.78;13.18;;;14.90;99.90;;;;;;4958381;29;20039;-92
2023/01/17 17:49:27;;;;;;;47.55;14.05;;;14.90;99.90;;;;;;4958358;29;20020;-93
2023/01/17 17:51:54;;;;;;;39.22;13.15;;;14.90;99.90;;;;;;4974231;28;20396;-92
2023/01/17 17:54:21;;;;;;;37.85;12.55;;;14.90;99.90;;;;;;4958091;29;20050;-92
2023/01/17 17:56:48;;;;;;;48.67;14.40;;;14.80;99.90;;;;;;4974155;28;20485;-92
2023/01/17 17:59:19;;;;;;;47.50;13.52;;;14.80;99.90;;;;;;4957831;29;20035;-93
2023/01/17 18:01:45;;;;;;;49.22;13.32;;;14.80;99.90;;;;;;4958798;29;20035;-92
2023/01/17 18:04:15;;;;;;;49.15;13.52;;;14.80;99.90;;;;;;4974071;28;20619;-93
2023/01/17 18:06:42;;;;;;;50.50;14.50;;;14.80;99.90;;;;;;4974509;28;20042;-91
2023/01/17 18:09:10;;;;;;;50.85;13.52;;;14.80;99.90;;;;;;4957879;29;20027;-91
2023/01/17 18:11:39;;;;;;;52.83;14.50;;;14.80;99.90;;;;;;4973802;28;20034;-94
2023/01/17 18:14:08;;;;;;;44.90;14.15;;;14.80;99.90;;;;;;4957859;29;20031;-92
2023/01/17 18:16:40;;;;;;;48.88;14.35;;;14.80;99.90;;;;;;4973731;28;20047;-93
2023/01/17 18:19:18;;;;;;;50.90;14.25;;;14.80;99.90;;;;;;4957920;29;20028;-93
2023/01/17 18:21:45;;;;;;;53.90;15.23;;;14.80;99.90;;;;;;4973391;28;20027;-92
2023/01/17 18:24:14;;;;;;;41.45;14.00;;;14.80;99.90;;;;;;4957814;29;20205;-92
2023/01/17 18:26:46;;;;;;;50.65;13.88;;;14.80;99.90;;;;;;4973629;28;20035;-92
2023/01/17 18:29:15;;;;;;;44.17;14.05;;;14.80;99.90;;;;;;4973486;28;20031;-92
2023/01/17 18:31:43;;;;;;;37.28;13.55;;;14.80;99.90;;;;;;4957469;29;20028;-92
2023/01/17 18:34:15;;;;;;;49.72;14.00;;;14.80;99.90;;;;;;4972983;28;20047;-94
2023/01/17 18:36:43;;;;;;;66.28;16.13;;;14.80;99.90;;;;;;4957389;29;20043;-93
2023/01/17 18:39:14;;;;;;;49.15;14.40;;;14.80;99.90;;;;;;4957454;29;20024;-91
2023/01/17 18:41:41;;;;;;;52.63;14.63;;;14.90;99.90;;;;;;4957602;29;20035;-91
2023/01/17 18:44:08;;;;;;;49.60;14.57;;;14.90;99.90;;;;;;4956124;28;20034;-92
2023/01/17 18:46:35;;;;;;;60.90;14.82;;;14.90;99.90;;;;;;4959288;28;20020;-93
2023/01/17 18:49:03;;;;;;;50.60;14.73;;;14.90;99.90;;;;;;4973075;28;20549;-93
2023/01/17 18:51:34;;;;;;;56.80;14.80;;;14.90;99.90;;;;;;4978385;28;20035;-93
2023/01/17 18:56:42;;;;;;;47.42;14.40;;;14.80;99.90;;;;;;5125341;23;20062;-93
2023/01/17 18:59:41;;;;;;;55.78;15.63;;;14.80;99.90;;;;;;4942916;29;20031;-92
2023/01/17 19:02:16;;;;;;;58.40;15.60;;;14.90;99.90;;;;;;4942319;29;20035;-92
2023/01/17 19:25:36;;;;;;;68.95;19.20;;;14.90;99.90;;;;;;5573753;23;20047;-94
2023/01/17 19:28:09;;;;;;;48.70;15.32;;;14.90;99.90;;;;;;4952843;28;20031;-92
2023/01/17 19:31:27;;;;;;;;;;;;;;;;;;;;;
2023/01/17 19:46:27;;;;;;;55.92;15.93;;;15.00;99.90;;;;;;4992358;23;20054;-94
2023/01/17 19:54:37;;;;;;;57.00;13.35;;;15.00;99.90;;;;;;5010988;23;20505;-92
2023/01/17 19:57:08;;;;;;;46.83;13.60;;;15.00;99.90;;;;;;4966353;23;20144;-92
2023/01/17 20:08:29;;;;;;;59.08;13.52;;;15.00;99.90;;;;;;4976402;28;20043;-91
2023/01/17 20:25:20;;;;;;;58.95;15.38;;;14.90;99.90;;;;;;5068702;23;20071;-93
2023/01/17 20:27:53;;;;;;;65.43;14.23;;;14.90;99.90;;;;;;4959200;28;20030;-92
2023/01/17 20:30:23;;;;;;;47.37;12.27;;;14.90;99.90;;;;;;4955742;28;20038;-94
2023/01/17 20:32:54;;;;;;;57.88;14.93;;;15.00;99.90;;;;;;4953670;29;20497;-94
2023/01/17 20:35:27;;;;;;;61.08;14.65;;;15.00;99.90;;;;;;4939692;29;20493;-94
2023/01/17 20:38:54;;;;;;;58.13;15.13;;;14.90;99.90;;;;;;4941419;28;20039;-93
2023/01/17 20:52:48;;;;;;;45.83;13.55;;;14.90;99.90;;;;;;5681689;23;20119;-93
2023/01/17 21:29:02;;;;;;;57.30;14.18;;;14.90;99.90;;;;;;4978589;28;20101;-93
2023/01/17 21:32:29;;;;;;;;;;;;;;;;;;;;;
